Isabel L — WDF6141 — position and weather

sailwx.info

Track history (hours):
 
Tides and Currents Weather Stations Pressure Air Temp Water Temp Dewpoint Dewpoint Depression Visibility Wind Speed Wind Dir Waves Ship Positions

Isabel L

Owner: SO CAL SHIP SERVICES, TERMINAL ISLAND, CA. More information available from US FCC via Universal Licensing System and Coast Guard Vessel Documentation Center.

Last reported at 2018-May-26 13:29 UTC. Time now 2018-May-26 13:29 UTC.
Position N 33°44' W 118°07'.

Length 28 m; draft 2 m.

Type: Ship (hazmat cat B). MMSI: 367471080.

Date/timePositionNaut miles runAvg speedWind from/ knotsBaromVisibWave heightAir tempDewpointWater temp
2018-May-26 13:29N 33°44' W 118°07'2 2.1
2018-May-26 12:38N 33°42' W 118°06'213.4
2018-May-26 12:30N 33°43' W 118°07'0 0.3
2018-May-26 11:59N 33°43' W 118°07'0 0.0
2018-May-26 11:27N 33°43' W 118°07'0 0.0
2018-May-26 10:57N 33°43' W 118°07'0 0.0
2018-May-26 10:28N 33°43' W 118°07'0 0.0
2018-May-26 09:58N 33°43' W 118°07'0 0.0
2018-May-26 09:27N 33°43' W 118°07'0 0.0
2018-May-26 08:57N 33°43' W 118°07'0 0.0
2018-May-26 08:30N 33°43' W 118°07'0 0.0
2018-May-26 07:59N 33°43' W 118°07'0 0.0
2018-May-26 07:30N 33°43' W 118°07'0 0.0
2018-May-26 06:55N 33°43' W 118°07'0 0.0
2018-May-26 06:25N 33°43' W 118°07'0 0.0
2018-May-26 04:54N 33°43' W 118°07'0 0.0
2018-May-26 04:28N 33°43' W 118°07'0 0.0
2018-May-26 03:52N 33°43' W 118°07'0 0.0
2018-May-26 03:29N 33°43' W 118°07'0 0.0
2018-May-26 03:01N 33°43' W 118°07'4 3.5
2018-May-26 01:49N 33°39' W 118°07'514.5
2018-May-26 01:30N 33°44' W 118°07'1 1.3
2018-May-26 00:34N 33°43' W 118°06'1 9.5
2018-May-26 00:28N 33°43' W 118°07'0 0.3
2018-May-26 00:00N 33°43' W 118°07'0 0.0
2018-May-25 23:30N 33°43' W 118°07'0 0.0
2018-May-25 23:00N 33°43' W 118°07'6 5.8
2018-May-25 21:55N 33°37' W 118°08'614.8
2018-May-25 21:30N 33°43' W 118°07'0 0.4
2018-May-25 21:00N 33°43' W 118°07'0 0.0
2018-May-25 20:30N 33°43' W 118°07'0 0.0
2018-May-25 19:59N 33°43' W 118°07'0 0.0
2018-May-25 19:30N 33°43' W 118°07'0 0.0
2018-May-25 18:59N 33°43' W 118°07'0 0.0
2018-May-25 18:30N 33°43' W 118°07'0 0.0
2018-May-25 18:00N 33°43' W 118°07'8 4.7
2018-May-25 16:25N 33°36' W 118°09'613.8
2018-May-25 16:01N 33°40' W 118°13'510.0
2018-May-25 15:30N 33°44' W 118°16'0 0.0
2018-May-25 15:00N 33°44' W 118°16'4 8.9
2018-May-25 14:30N 33°41' W 118°13'5 9.7
2018-May-25 13:57N 33°37' W 118°08'614.1
2018-May-25 13:30N 33°43' W 118°07'4 5.6
2018-May-25 12:48N 33°40' W 118°04'412.5
2018-May-25 12:29N 33°43' W 118°07'0 0.4
2018-May-25 11:58N 33°43' W 118°07'0 0.0
2018-May-25 11:30N 33°43' W 118°07'0 0.0
2018-May-25 10:58N 33°43' W 118°07'0 0.0
2018-May-25 10:27N 33°43' W 118°07'0 0.0
2018-May-25 09:59N 33°43' W 118°07'0 0.0
2018-May-25 09:27N 33°43' W 118°07'0 0.0
2018-May-25 08:59N 33°43' W 118°07'0 0.0
2018-May-25 08:30N 33°43' W 118°07'0 0.0
2018-May-25 07:57N 33°43' W 118°07'0 0.0
2018-May-25 07:27N 33°43' W 118°07'0 0.0
2018-May-25 07:00N 33°43' W 118°07'0 0.0
2018-May-25 06:18N 33°43' W 118°07'0 0.0
2018-May-25 05:55N 33°43' W 118°07'0 0.0
2018-May-25 05:28N 33°43' W 118°07'0 0.0
2018-May-25 04:59N 33°43' W 118°07'0 0.0
2018-May-25 04:30N 33°43' W 118°07'0 0.0
2018-May-25 02:54N 33°43' W 118°07'4 3.8
2018-May-25 01:45N 33°39' W 118°08'414.4
2018-May-25 01:30N 33°42' W 118°07'2 1.8
2018-May-25 00:35N 33°42' W 118°05'114.4
2018-May-25 00:30N 33°42' W 118°06'1 1.9
2018-May-25 00:00N 33°43' W 118°07'0 0.0
2018-May-24 23:30N 33°43' W 118°07'0 0.0
2018-May-24 23:00N 33°43' W 118°07'0 0.3
2018-May-24 21:38N 33°44' W 118°06'812.5
2018-May-24 20:59N 33°36' W 118°09'815.7
2018-May-24 20:30N 33°42' W 118°14'3 5.9
2018-May-24 20:00N 33°44' W 118°16'0 0.7
2018-May-24 19:30N 33°44' W 118°16'0 0.6
2018-May-24 19:00N 33°44' W 118°16'4 7.2
2018-May-24 18:30N 33°43' W 118°12'8 7.4
2018-May-24 17:23N 33°36' W 118°09'1 3.0
2018-May-24 16:59N 33°37' W 118°07'5 2.4
2018-May-24 15:08N 33°40' W 118°05'214.5
2018-May-24 15:00N 33°42' W 118°06'7 7.4
2018-May-24 14:07N 33°36' W 118°09'511.7
2018-May-24 13:42N 33°40' W 118°07'314.6
2018-May-24 13:30N 33°43' W 118°07'0 0.0
2018-May-24 07:45N 33°43' W 118°07'0 0.0
2018-May-24 07:21N 33°43' W 118°07'0 0.0
2018-May-24 06:59N 33°43' W 118°07'4 8.2
2018-May-24 06:30N 33°44' W 118°11'4 5.8
2018-May-24 05:47N 33°44' W 118°16'0 0.0
2018-May-24 05:21N 33°44' W 118°16'0 0.0
2018-May-24 04:52N 33°44' W 118°16'0 0.8
2018-May-24 04:30N 33°44' W 118°16'611.5
2018-May-24 04:00N 33°44' W 118°09'5 5.6
2018-May-24 03:01N 33°40' W 118°04'113.9
2018-May-24 02:55N 33°42' W 118°05'6 6.2
2018-May-24 01:57N 33°36' W 118°08'614.5
2018-May-24 01:30N 33°43' W 118°07'3 4.3
2018-May-24 00:43N 33°40' W 118°04'314.3
2018-May-24 00:30N 33°43' W 118°06'1 1.6
2018-May-24 00:00N 33°43' W 118°07'0 0.2
2018-May-23 23:30N 33°43' W 118°07'7 9.3
2018-May-23 22:41N 33°36' W 118°09'1 4.8
2018-May-23 22:30N 33°36' W 118°08'5 9.3
2018-May-23 21:59N 33°40' W 118°04'5 9.3
2018-May-23 21:30N 33°44' W 118°06'8 7.5
2018-May-23 20:28N 33°36' W 118°08'2 4.8
2018-May-23 19:59N 33°38' W 118°08'5 9.0
2018-May-23 19:24N 33°43' W 118°07'4 5.3
2018-May-23 18:34N 33°40' W 118°04'0 0.0
2018-May-23 18:28N 33°40' W 118°04'0 0.0
2018-May-23 16:35N 33°40' W 118°04'610.8
2018-May-23 16:04N 33°36' W 118°09'111.0
2018-May-23 15:58N 33°37' W 118°08'5 9.3
2018-May-23 15:28N 33°40' W 118°04'5 3.4
2018-May-23 13:57N 33°36' W 118°08'614.7
2018-May-23 13:30N 33°43' W 118°07'1 0.9
2018-May-23 12:30N 33°44' W 118°07'2 4.3
2018-May-23 12:00N 33°44' W 118°09'611.7
2018-May-23 11:30N 33°44' W 118°16'0 0.2
2018-May-23 11:00N 33°44' W 118°16'0 0.0
2018-May-23 10:30N 33°44' W 118°16'0 0.0
2018-May-23 10:00N 33°44' W 118°16'0 0.0
2018-May-23 09:30N 33°44' W 118°16'0 0.0
2018-May-23 09:00N 33°44' W 118°16'0 0.0
2018-May-23 08:30N 33°44' W 118°16'0 0.0
2018-May-23 08:00N 33°44' W 118°16'0 0.0
2018-May-23 07:30N 33°44' W 118°16'0 0.0
2018-May-23 07:00N 33°44' W 118°16'0 0.0
2018-May-23 06:30N 33°44' W 118°16'0 0.0
2018-May-23 06:00N 33°44' W 118°16'0 0.0
2018-May-23 05:30N 33°44' W 118°16'0 0.0
2018-May-23 05:00N 33°44' W 118°16'0 0.0
2018-May-23 04:30N 33°44' W 118°16'0 0.0
2018-May-23 04:00N 33°44' W 118°16'0 0.0
2018-May-23 03:30N 33°44' W 118°16'2 3.3
2018-May-23 03:00N 33°43' W 118°15'713.2
2018-May-23 02:30N 33°44' W 118°07'812.1
2018-May-23 01:49N 33°36' W 118°09'413.7
2018-May-23 01:30N 33°40' W 118°08'3 3.9
2018-May-23 00:40N 33°40' W 118°04'215.1
2018-May-23 00:30N 33°42' W 118°06'2 4.0
2018-May-22 23:59N 33°44' W 118°07'8 7.5
2018-May-22 22:52N 33°36' W 118°09'4 9.7
2018-May-22 22:30N 33°39' W 118°07'4 8.2
2018-May-22 22:00N 33°43' W 118°07'1 1.3
2018-May-22 21:31N 33°44' W 118°07'1 1.3
2018-May-22 21:00N 33°43' W 118°07'0 0.0
2018-May-22 20:30N 33°43' W 118°07'0 0.0
2018-May-22 20:00N 33°43' W 118°07'1 1.3
2018-May-22 19:30N 33°44' W 118°07'4 7.0
2018-May-22 18:54N 33°40' W 118°04'6 2.6
2018-May-22 16:39N 33°36' W 118°09'0 0.3
2018-May-22 16:29N 33°36' W 118°08'4 7.9
2018-May-22 16:00N 33°39' W 118°07'4 7.5
2018-May-22 15:30N 33°43' W 118°07'0 0.2
2018-May-22 15:00N 33°43' W 118°07'812.7
2018-May-22 14:25N 33°36' W 118°09'1 1.6
2018-May-22 14:00N 33°36' W 118°08'713.9
2018-May-22 13:30N 33°43' W 118°07'0 0.2
2018-May-22 12:35N 33°43' W 118°07'1 7.2
2018-May-22 12:28N 33°44' W 118°07'1 0.1
2018-May-22 02:59N 33°43' W 118°07'0 0.0
2018-May-22 02:30N 33°43' W 118°07'810.0
2018-May-22 01:45N 33°36' W 118°09'313.4
2018-May-22 01:30N 33°39' W 118°08'4 4.1
2018-May-22 00:37N 33°40' W 118°04'215.7
2018-May-22 00:29N 33°42' W 118°05'2 4.9
2018-May-22 00:00N 33°44' W 118°07'3 4.2
2018-May-21 23:18N 33°41' W 118°07'513.9
2018-May-21 22:55N 33°36' W 118°09'410.3
2018-May-21 22:30N 33°40' W 118°08'3 6.6
2018-May-21 22:00N 33°43' W 118°07'0 0.0
2018-May-21 21:30N 33°43' W 118°07'0 0.0
2018-May-21 21:00N 33°43' W 118°07'0 0.0
2018-May-21 20:30N 33°43' W 118°07'4 7.6
2018-May-21 20:00N 33°44' W 118°11'4 8.5
2018-May-21 19:30N 33°44' W 118°16'0 0.0
2018-May-21 19:00N 33°44' W 118°16'0 0.0
2018-May-21 18:30N 33°44' W 118°16'0 0.0
2018-May-21 18:00N 33°44' W 118°16'0 0.0
2018-May-21 17:30N 33°44' W 118°16'0 0.0
2018-May-21 16:32N 33°44' W 118°16'0 0.0
2018-May-21 16:30N 33°44' W 118°16'4 8.5
2018-May-21 16:00N 33°43' W 118°11'4 3.0
2018-May-21 14:44N 33°43' W 118°07'810.5
2018-May-21 14:01N 33°36' W 118°09'113.6
2018-May-21 13:59N 33°36' W 118°08'714.0
2018-May-21 13:31N 33°43' W 118°07'0 0.0
2018-May-20 23:44N 33°43' W 118°07'0 0.0
2018-May-20 23:30N 33°43' W 118°07'811.8
2018-May-20 22:51N 33°36' W 118°08'412.0
2018-May-20 22:30N 33°40' W 118°07'3 6.7
2018-May-20 22:00N 33°43' W 118°07'0 0.2
2018-May-20 21:30N 33°43' W 118°07'7 2.6
2018-May-20 18:39N 33°36' W 118°08'1 5.2
2018-May-20 18:29N 33°36' W 118°09'714.0
2018-May-20 18:00N 33°42' W 118°14'3 5.8
2018-May-20 17:31N 33°44' W 118°16'2 3.3
2018-May-20 17:01N 33°43' W 118°15'612.2
2018-May-20 16:30N 33°43' W 118°07'7 2.9
2018-May-20 13:59N 33°36' W 118°09'713.8
2018-May-20 13:30N 33°42' W 118°07'1 1.3
2018-May-20 12:36N 33°42' W 118°06'114.0
2018-May-20 12:30N 33°43' W 118°07'0 0.3
2018-May-20 12:00N 33°43' W 118°07'0 0.0
2018-May-20 11:28N 33°43' W 118°07'0 0.0
2018-May-20 11:00N 33°43' W 118°07'0 0.0
2018-May-20 10:30N 33°43' W 118°07'0 0.0
2018-May-20 10:00N 33°43' W 118°07'0 0.0
2018-May-20 09:29N 33°43' W 118°07'0 0.0
2018-May-20 09:00N 33°43' W 118°07'0 0.0
2018-May-20 08:28N 33°43' W 118°07'0 0.0
2018-May-20 08:00N 33°43' W 118°07'0 0.0
2018-May-20 07:30N 33°43' W 118°07'0 0.0
2018-May-20 06:59N 33°43' W 118°07'0 0.0
2018-May-20 06:31N 33°43' W 118°07'0 0.0
2018-May-20 05:56N 33°43' W 118°07'0 0.0
2018-May-20 05:26N 33°43' W 118°07'0 0.0
2018-May-20 02:52N 33°43' W 118°07'0 0.0
2018-May-20 02:30N 33°43' W 118°07'8 9.9
2018-May-20 01:45N 33°36' W 118°09'314.5
2018-May-20 01:31N 33°39' W 118°08'4 8.2
2018-May-20 01:01N 33°43' W 118°07'2 3.7
2018-May-20 00:29N 33°42' W 118°05'2 1.4
2018-May-19 22:41N 33°40' W 118°04'0 0.8
2018-May-19 22:29N 33°40' W 118°04'6 2.2
2018-May-19 20:00N 33°36' W 118°09'611.7
2018-May-19 19:30N 33°41' W 118°07'4 7.8
2018-May-19 19:00N 33°42' W 118°12'4 8.8
2018-May-19 18:30N 33°44' W 118°16'0 0.0
2018-May-19 18:00N 33°44' W 118°16'0 0.0
2018-May-19 17:30N 33°44' W 118°16'0 0.2
2018-May-19 17:00N 33°44' W 118°16'0 0.0
2018-May-19 16:30N 33°44' W 118°16'1 1.2
2018-May-19 16:00N 33°44' W 118°16'611.7
2018-May-19 15:30N 33°43' W 118°09'7 5.9
2018-May-19 14:16N 33°36' W 118°09'0 0.0
2018-May-19 13:59N 33°36' W 118°09'613.7
2018-May-19 13:31N 33°42' W 118°07'1 1.0
2018-May-19 12:35N 33°42' W 118°06'1 9.5
2018-May-19 12:27N 33°43' W 118°07'0 0.5
2018-May-19 12:00N 33°43' W 118°07'0 0.0
2018-May-19 11:29N 33°43' W 118°07'0 0.0
2018-May-19 09:34N 33°43' W 118°07'0 0.0
2018-May-19 09:27N 33°43' W 118°07'0 0.0
2018-May-19 07:34N 33°43' W 118°07'0 0.1
2018-May-19 07:30N 33°43' W 118°07'0 0.0
2018-May-19 06:58N 33°43' W 118°07'0 0.0
2018-May-19 06:28N 33°43' W 118°07'0 0.0
2018-May-19 06:00N 33°43' W 118°07'0 0.0
2018-May-19 04:43N 33°43' W 118°07'0 0.0
2018-May-19 02:58N 33°43' W 118°07'0 0.0
2018-May-19 02:30N 33°43' W 118°07'810.2
2018-May-19 01:46N 33°36' W 118°09'414.1
2018-May-19 01:30N 33°39' W 118°08'3 3.0
2018-May-19 00:29N 33°42' W 118°06'7 1.0
2018-May-18 17:43N 33°36' W 118°08'3 8.3
2018-May-18 17:22N 33°38' W 118°06'4 7.0
2018-May-18 16:47N 33°42' W 118°06'2 8.9
2018-May-18 16:30N 33°44' W 118°08'713.5
2018-May-18 16:00N 33°43' W 118°16'1 1.9
2018-May-18 15:30N 33°44' W 118°16'0 0.0
2018-May-18 15:00N 33°44' W 118°16'4 8.6
2018-May-18 14:30N 33°41' W 118°13'611.8
2018-May-18 13:59N 33°36' W 118°08'714.3
2018-May-18 13:30N 33°43' W 118°07'1 1.6
2018-May-18 12:39N 33°42' W 118°06'212.4
2018-May-18 12:30N 33°43' W 118°07'0 0.3
2018-May-18 12:00N 33°43' W 118°07'0 0.0
2018-May-18 11:30N 33°43' W 118°07'0 0.0
2018-May-18 11:00N 33°43' W 118°07'0 0.0
2018-May-18 10:30N 33°43' W 118°07'0 0.0
2018-May-18 10:00N 33°43' W 118°07'0 0.0
2018-May-18 09:30N 33°43' W 118°07'0 0.0
2018-May-18 09:00N 33°43' W 118°07'0 0.0
2018-May-18 08:29N 33°43' W 118°07'0 0.0
2018-May-18 08:00N 33°43' W 118°07'0 0.0
2018-May-18 07:30N 33°43' W 118°07'0 0.0
2018-May-18 07:00N 33°43' W 118°07'0 0.0
2018-May-18 06:30N 33°43' W 118°07'0 0.0
2018-May-18 06:00N 33°43' W 118°07'0 0.0
2018-May-18 05:30N 33°43' W 118°07'0 0.0
2018-May-18 04:59N 33°43' W 118°07'0 0.0
2018-May-18 04:30N 33°43' W 118°07'0 0.0
2018-May-18 03:58N 33°43' W 118°07'0 0.0
2018-May-18 03:30N 33°43' W 118°07'0 0.0
2018-May-18 03:00N 33°43' W 118°07'0 0.0
2018-May-18 02:30N 33°43' W 118°07'6 7.6
2018-May-18 01:41N 33°37' W 118°08'315.6
2018-May-18 01:30N 33°40' W 118°07'3 6.4
2018-May-18 01:00N 33°43' W 118°06'1 1.7
2018-May-18 00:30N 33°42' W 118°06'1 2.0
2018-May-17 23:50N 33°43' W 118°07'0 0.0
2018-May-17 23:23N 33°43' W 118°07'0 0.0
2018-May-17 22:58N 33°43' W 118°07'0 0.0
2018-May-17 22:30N 33°43' W 118°07'0 0.0
2018-May-17 21:58N 33°43' W 118°07'8 8.1
2018-May-17 21:02N 33°36' W 118°09'0 0.0
2018-May-17 21:00N 33°36' W 118°09'7 2.4
2018-May-17 18:14N 33°42' W 118°05'2 8.1
2018-May-17 18:00N 33°43' W 118°07'610.9
2018-May-17 17:29N 33°43' W 118°14'2 5.0
2018-May-17 17:00N 33°44' W 118°16'0 0.0
2018-May-17 16:30N 33°44' W 118°16'1 2.3
2018-May-17 16:00N 33°43' W 118°16'713.5
2018-May-17 15:30N 33°44' W 118°08'1 1.7
2018-May-17 15:00N 33°43' W 118°07'8 8.9
2018-May-17 14:09N 33°36' W 118°09'212.7
2018-May-17 14:00N 33°38' W 118°08'6 9.1
2018-May-17 13:23N 33°43' W 118°07'4 9.8
2018-May-17 12:56N 33°40' W 118°04'511.3
2018-May-17 12:30N 33°44' W 118°07'1 1.4
2018-May-17 12:00N 33°43' W 118°07'0 0.0
2018-May-17 11:30N 33°43' W 118°07'0 0.0
2018-May-17 11:00N 33°43' W 118°07'0 0.0
2018-May-17 10:30N 33°43' W 118°07'0 0.0
2018-May-17 10:00N 33°43' W 118°07'0 0.0
2018-May-17 05:23N 33°43' W 118°07'0 0.0
2018-May-17 04:38N 33°43' W 118°07'0 0.0
2018-May-17 04:29N 33°43' W 118°07'0 0.0
2018-May-17 02:57N 33°43' W 118°07'6 5.3
2018-May-17 01:47N 33°37' W 118°08'415.0
2018-May-17 01:30N 33°41' W 118°07'2 3.6
2018-May-17 01:00N 33°42' W 118°05'1 2.3
2018-May-17 00:28N 33°43' W 118°06'1 2.5
2018-May-16 23:58N 33°44' W 118°07'1 1.0
2018-May-16 23:23N 33°43' W 118°07'6 9.2
2018-May-16 22:41N 33°37' W 118°07'5 1.2
2018-May-16 18:14N 33°42' W 118°05'210.7
2018-May-16 18:00N 33°44' W 118°06'1 1.9
2018-May-16 17:30N 33°43' W 118°07'0 0.0
2018-May-16 17:00N 33°43' W 118°07'8 3.5
2018-May-16 14:51N 33°36' W 118°09'6 9.7
2018-May-16 14:13N 33°41' W 118°05'3 6.6
2018-May-16 13:50N 33°43' W 118°07'  
Track history (hours):
 
Tides and Currents Weather Stations Pressure Air Temp Water Temp Dewpoint Dewpoint Depression Visibility Wind Speed Wind Dir Waves Ship Positions

Isabel L

Owner: SO CAL SHIP SERVICES, TERMINAL ISLAND, CA. More information available from US FCC via Universal Licensing System and Coast Guard Vessel Documentation Center.

Last reported at 2018-May-26 13:29 UTC. Time now 2018-May-26 13:29 UTC.
Position N 33°44' W 118°07'.

Length 28 m; draft 2 m.

Type: Ship (hazmat cat B). MMSI: 367471080.

Date/timePositionNaut miles runAvg speedWind from/ knotsBaromVisibWave heightAir tempDewpointWater temp
2018-May-26 13:29N 33°44' W 118°07'2 2.1
2018-May-26 12:38N 33°42' W 118°06'213.4
2018-May-26 12:30N 33°43' W 118°07'0 0.3
2018-May-26 11:59N 33°43' W 118°07'0 0.0
2018-May-26 11:27N 33°43' W 118°07'0 0.0
2018-May-26 10:57N 33°43' W 118°07'0 0.0
2018-May-26 10:28N 33°43' W 118°07'0 0.0
2018-May-26 09:58N 33°43' W 118°07'0 0.0
2018-May-26 09:27N 33°43' W 118°07'0 0.0
2018-May-26 08:57N 33°43' W 118°07'0 0.0
2018-May-26 08:30N 33°43' W 118°07'0 0.0
2018-May-26 07:59N 33°43' W 118°07'0 0.0
2018-May-26 07:30N 33°43' W 118°07'0 0.0
2018-May-26 06:55N 33°43' W 118°07'0 0.0
2018-May-26 06:25N 33°43' W 118°07'0 0.0
2018-May-26 04:54N 33°43' W 118°07'0 0.0
2018-May-26 04:28N 33°43' W 118°07'0 0.0
2018-May-26 03:52N 33°43' W 118°07'0 0.0
2018-May-26 03:29N 33°43' W 118°07'0 0.0
2018-May-26 03:01N 33°43' W 118°07'4 3.5
2018-May-26 01:49N 33°39' W 118°07'514.5
2018-May-26 01:30N 33°44' W 118°07'1 1.3
2018-May-26 00:34N 33°43' W 118°06'1 9.5
2018-May-26 00:28N 33°43' W 118°07'0 0.3
2018-May-26 00:00N 33°43' W 118°07'0 0.0
2018-May-25 23:30N 33°43' W 118°07'0 0.0
2018-May-25 23:00N 33°43' W 118°07'6 5.8
2018-May-25 21:55N 33°37' W 118°08'614.8
2018-May-25 21:30N 33°43' W 118°07'0 0.4
2018-May-25 21:00N 33°43' W 118°07'0 0.0
2018-May-25 20:30N 33°43' W 118°07'0 0.0
2018-May-25 19:59N 33°43' W 118°07'0 0.0
2018-May-25 19:30N 33°43' W 118°07'0 0.0
2018-May-25 18:59N 33°43' W 118°07'0 0.0
2018-May-25 18:30N 33°43' W 118°07'0 0.0
2018-May-25 18:00N 33°43' W 118°07'8 4.7
2018-May-25 16:25N 33°36' W 118°09'613.8
2018-May-25 16:01N 33°40' W 118°13'510.0
2018-May-25 15:30N 33°44' W 118°16'0 0.0
2018-May-25 15:00N 33°44' W 118°16'4 8.9
2018-May-25 14:30N 33°41' W 118°13'5 9.7
2018-May-25 13:57N 33°37' W 118°08'614.1
2018-May-25 13:30N 33°43' W 118°07'4 5.6
2018-May-25 12:48N 33°40' W 118°04'412.5
2018-May-25 12:29N 33°43' W 118°07'0 0.4
2018-May-25 11:58N 33°43' W 118°07'0 0.0
2018-May-25 11:30N 33°43' W 118°07'0 0.0
2018-May-25 10:58N 33°43' W 118°07'0 0.0
2018-May-25 10:27N 33°43' W 118°07'0 0.0
2018-May-25 09:59N 33°43' W 118°07'0 0.0
2018-May-25 09:27N 33°43' W 118°07'0 0.0
2018-May-25 08:59N 33°43' W 118°07'0 0.0
2018-May-25 08:30N 33°43' W 118°07'0 0.0
2018-May-25 07:57N 33°43' W 118°07'0 0.0
2018-May-25 07:27N 33°43' W 118°07'0 0.0
2018-May-25 07:00N 33°43' W 118°07'0 0.0
2018-May-25 06:18N 33°43' W 118°07'0 0.0
2018-May-25 05:55N 33°43' W 118°07'0 0.0
2018-May-25 05:28N 33°43' W 118°07'0 0.0
2018-May-25 04:59N 33°43' W 118°07'0 0.0
2018-May-25 04:30N 33°43' W 118°07'0 0.0
2018-May-25 02:54N 33°43' W 118°07'4 3.8
2018-May-25 01:45N 33°39' W 118°08'414.4
2018-May-25 01:30N 33°42' W 118°07'2 1.8
2018-May-25 00:35N 33°42' W 118°05'114.4
2018-May-25 00:30N 33°42' W 118°06'1 1.9
2018-May-25 00:00N 33°43' W 118°07'0 0.0
2018-May-24 23:30N 33°43' W 118°07'0 0.0
2018-May-24 23:00N 33°43' W 118°07'0 0.3
2018-May-24 21:38N 33°44' W 118°06'812.5
2018-May-24 20:59N 33°36' W 118°09'815.7
2018-May-24 20:30N 33°42' W 118°14'3 5.9
2018-May-24 20:00N 33°44' W 118°16'0 0.7
2018-May-24 19:30N 33°44' W 118°16'0 0.6
2018-May-24 19:00N 33°44' W 118°16'4 7.2
2018-May-24 18:30N 33°43' W 118°12'8 7.4
2018-May-24 17:23N 33°36' W 118°09'1 3.0
2018-May-24 16:59N 33°37' W 118°07'5 2.4
2018-May-24 15:08N 33°40' W 118°05'214.5
2018-May-24 15:00N 33°42' W 118°06'7 7.4
2018-May-24 14:07N 33°36' W 118°09'511.7
2018-May-24 13:42N 33°40' W 118°07'314.6
2018-May-24 13:30N 33°43' W 118°07'0 0.0
2018-May-24 07:45N 33°43' W 118°07'0 0.0
2018-May-24 07:21N 33°43' W 118°07'0 0.0
2018-May-24 06:59N 33°43' W 118°07'4 8.2
2018-May-24 06:30N 33°44' W 118°11'4 5.8
2018-May-24 05:47N 33°44' W 118°16'0 0.0
2018-May-24 05:21N 33°44' W 118°16'0 0.0
2018-May-24 04:52N 33°44' W 118°16'0 0.8
2018-May-24 04:30N 33°44' W 118°16'611.5
2018-May-24 04:00N 33°44' W 118°09'5 5.6
2018-May-24 03:01N 33°40' W 118°04'113.9
2018-May-24 02:55N 33°42' W 118°05'6 6.2
2018-May-24 01:57N 33°36' W 118°08'614.5
2018-May-24 01:30N 33°43' W 118°07'3 4.3
2018-May-24 00:43N 33°40' W 118°04'314.3
2018-May-24 00:30N 33°43' W 118°06'1 1.6
2018-May-24 00:00N 33°43' W 118°07'0 0.2
2018-May-23 23:30N 33°43' W 118°07'7 9.3
2018-May-23 22:41N 33°36' W 118°09'1 4.8
2018-May-23 22:30N 33°36' W 118°08'5 9.3
2018-May-23 21:59N 33°40' W 118°04'5 9.3
2018-May-23 21:30N 33°44' W 118°06'8 7.5
2018-May-23 20:28N 33°36' W 118°08'2 4.8
2018-May-23 19:59N 33°38' W 118°08'5 9.0
2018-May-23 19:24N 33°43' W 118°07'4 5.3
2018-May-23 18:34N 33°40' W 118°04'0 0.0
2018-May-23 18:28N 33°40' W 118°04'0 0.0
2018-May-23 16:35N 33°40' W 118°04'610.8
2018-May-23 16:04N 33°36' W 118°09'111.0
2018-May-23 15:58N 33°37' W 118°08'5 9.3
2018-May-23 15:28N 33°40' W 118°04'5 3.4
2018-May-23 13:57N 33°36' W 118°08'614.7
2018-May-23 13:30N 33°43' W 118°07'1 0.9
2018-May-23 12:30N 33°44' W 118°07'2 4.3
2018-May-23 12:00N 33°44' W 118°09'611.7
2018-May-23 11:30N 33°44' W 118°16'0 0.2
2018-May-23 11:00N 33°44' W 118°16'0 0.0
2018-May-23 10:30N 33°44' W 118°16'0 0.0
2018-May-23 10:00N 33°44' W 118°16'0 0.0
2018-May-23 09:30N 33°44' W 118°16'0 0.0
2018-May-23 09:00N 33°44' W 118°16'0 0.0
2018-May-23 08:30N 33°44' W 118°16'0 0.0
2018-May-23 08:00N 33°44' W 118°16'0 0.0
2018-May-23 07:30N 33°44' W 118°16'0 0.0
2018-May-23 07:00N 33°44' W 118°16'0 0.0
2018-May-23 06:30N 33°44' W 118°16'0 0.0
2018-May-23 06:00N 33°44' W 118°16'0 0.0
2018-May-23 05:30N 33°44' W 118°16'0 0.0
2018-May-23 05:00N 33°44' W 118°16'0 0.0
2018-May-23 04:30N 33°44' W 118°16'0 0.0
2018-May-23 04:00N 33°44' W 118°16'0 0.0
2018-May-23 03:30N 33°44' W 118°16'2 3.3
2018-May-23 03:00N 33°43' W 118°15'713.2
2018-May-23 02:30N 33°44' W 118°07'812.1
2018-May-23 01:49N 33°36' W 118°09'413.7
2018-May-23 01:30N 33°40' W 118°08'3 3.9
2018-May-23 00:40N 33°40' W 118°04'215.1
2018-May-23 00:30N 33°42' W 118°06'2 4.0
2018-May-22 23:59N 33°44' W 118°07'8 7.5
2018-May-22 22:52N 33°36' W 118°09'4 9.7
2018-May-22 22:30N 33°39' W 118°07'4 8.2
2018-May-22 22:00N 33°43' W 118°07'1 1.3
2018-May-22 21:31N 33°44' W 118°07'1 1.3
2018-May-22 21:00N 33°43' W 118°07'0 0.0
2018-May-22 20:30N 33°43' W 118°07'0 0.0
2018-May-22 20:00N 33°43' W 118°07'1 1.3
2018-May-22 19:30N 33°44' W 118°07'4 7.0
2018-May-22 18:54N 33°40' W 118°04'6 2.6
2018-May-22 16:39N 33°36' W 118°09'0 0.3
2018-May-22 16:29N 33°36' W 118°08'4 7.9
2018-May-22 16:00N 33°39' W 118°07'4 7.5
2018-May-22 15:30N 33°43' W 118°07'0 0.2
2018-May-22 15:00N 33°43' W 118°07'812.7
2018-May-22 14:25N 33°36' W 118°09'1 1.6
2018-May-22 14:00N 33°36' W 118°08'713.9
2018-May-22 13:30N 33°43' W 118°07'0 0.2
2018-May-22 12:35N 33°43' W 118°07'1 7.2
2018-May-22 12:28N 33°44' W 118°07'1 0.1
2018-May-22 02:59N 33°43' W 118°07'0 0.0
2018-May-22 02:30N 33°43' W 118°07'810.0
2018-May-22 01:45N 33°36' W 118°09'313.4
2018-May-22 01:30N 33°39' W 118°08'4 4.1
2018-May-22 00:37N 33°40' W 118°04'215.7
2018-May-22 00:29N 33°42' W 118°05'2 4.9
2018-May-22 00:00N 33°44' W 118°07'3 4.2
2018-May-21 23:18N 33°41' W 118°07'513.9
2018-May-21 22:55N 33°36' W 118°09'410.3
2018-May-21 22:30N 33°40' W 118°08'3 6.6
2018-May-21 22:00N 33°43' W 118°07'0 0.0
2018-May-21 21:30N 33°43' W 118°07'0 0.0
2018-May-21 21:00N 33°43' W 118°07'0 0.0
2018-May-21 20:30N 33°43' W 118°07'4 7.6
2018-May-21 20:00N 33°44' W 118°11'4 8.5
2018-May-21 19:30N 33°44' W 118°16'0 0.0
2018-May-21 19:00N 33°44' W 118°16'0 0.0
2018-May-21 18:30N 33°44' W 118°16'0 0.0
2018-May-21 18:00N 33°44' W 118°16'0 0.0
2018-May-21 17:30N 33°44' W 118°16'0 0.0
2018-May-21 16:32N 33°44' W 118°16'0 0.0
2018-May-21 16:30N 33°44' W 118°16'4 8.5
2018-May-21 16:00N 33°43' W 118°11'4 3.0
2018-May-21 14:44N 33°43' W 118°07'810.5
2018-May-21 14:01N 33°36' W 118°09'113.6
2018-May-21 13:59N 33°36' W 118°08'714.0
2018-May-21 13:31N 33°43' W 118°07'0 0.0
2018-May-20 23:44N 33°43' W 118°07'0 0.0
2018-May-20 23:30N 33°43' W 118°07'811.8
2018-May-20 22:51N 33°36' W 118°08'412.0
2018-May-20 22:30N 33°40' W 118°07'3 6.7
2018-May-20 22:00N 33°43' W 118°07'0 0.2
2018-May-20 21:30N 33°43' W 118°07'7 2.6
2018-May-20 18:39N 33°36' W 118°08'1 5.2
2018-May-20 18:29N 33°36' W 118°09'714.0
2018-May-20 18:00N 33°42' W 118°14'3 5.8
2018-May-20 17:31N 33°44' W 118°16'2 3.3
2018-May-20 17:01N 33°43' W 118°15'612.2
2018-May-20 16:30N 33°43' W 118°07'7 2.9
2018-May-20 13:59N 33°36' W 118°09'713.8
2018-May-20 13:30N 33°42' W 118°07'1 1.3
2018-May-20 12:36N 33°42' W 118°06'114.0
2018-May-20 12:30N 33°43' W 118°07'0 0.3
2018-May-20 12:00N 33°43' W 118°07'0 0.0
2018-May-20 11:28N 33°43' W 118°07'0 0.0
2018-May-20 11:00N 33°43' W 118°07'0 0.0
2018-May-20 10:30N 33°43' W 118°07'0 0.0
2018-May-20 10:00N 33°43' W 118°07'0 0.0
2018-May-20 09:29N 33°43' W 118°07'0 0.0
2018-May-20 09:00N 33°43' W 118°07'0 0.0
2018-May-20 08:28N 33°43' W 118°07'0 0.0
2018-May-20 08:00N 33°43' W 118°07'0 0.0
2018-May-20 07:30N 33°43' W 118°07'0 0.0
2018-May-20 06:59N 33°43' W 118°07'0 0.0
2018-May-20 06:31N 33°43' W 118°07'0 0.0
2018-May-20 05:56N 33°43' W 118°07'0 0.0
2018-May-20 05:26N 33°43' W 118°07'0 0.0
2018-May-20 02:52N 33°43' W 118°07'0 0.0
2018-May-20 02:30N 33°43' W 118°07'8 9.9
2018-May-20 01:45N 33°36' W 118°09'314.5
2018-May-20 01:31N 33°39' W 118°08'4 8.2
2018-May-20 01:01N 33°43' W 118°07'2 3.7
2018-May-20 00:29N 33°42' W 118°05'2 1.4
2018-May-19 22:41N 33°40' W 118°04'0 0.8
2018-May-19 22:29N 33°40' W 118°04'6 2.2
2018-May-19 20:00N 33°36' W 118°09'611.7
2018-May-19 19:30N 33°41' W 118°07'4 7.8
2018-May-19 19:00N 33°42' W 118°12'4 8.8
2018-May-19 18:30N 33°44' W 118°16'0 0.0
2018-May-19 18:00N 33°44' W 118°16'0 0.0
2018-May-19 17:30N 33°44' W 118°16'0 0.2
2018-May-19 17:00N 33°44' W 118°16'0 0.0
2018-May-19 16:30N 33°44' W 118°16'1 1.2
2018-May-19 16:00N 33°44' W 118°16'611.7
2018-May-19 15:30N 33°43' W 118°09'7 5.9
2018-May-19 14:16N 33°36' W 118°09'0 0.0
2018-May-19 13:59N 33°36' W 118°09'613.7
2018-May-19 13:31N 33°42' W 118°07'1 1.0
2018-May-19 12:35N 33°42' W 118°06'1 9.5
2018-May-19 12:27N 33°43' W 118°07'0 0.5
2018-May-19 12:00N 33°43' W 118°07'0 0.0
2018-May-19 11:29N 33°43' W 118°07'0 0.0
2018-May-19 09:34N 33°43' W 118°07'0 0.0
2018-May-19 09:27N 33°43' W 118°07'0 0.0
2018-May-19 07:34N 33°43' W 118°07'0 0.1
2018-May-19 07:30N 33°43' W 118°07'0 0.0
2018-May-19 06:58N 33°43' W 118°07'0 0.0
2018-May-19 06:28N 33°43' W 118°07'0 0.0
2018-May-19 06:00N 33°43' W 118°07'0 0.0
2018-May-19 04:43N 33°43' W 118°07'0 0.0
2018-May-19 02:58N 33°43' W 118°07'0 0.0
2018-May-19 02:30N 33°43' W 118°07'810.2
2018-May-19 01:46N 33°36' W 118°09'414.1
2018-May-19 01:30N 33°39' W 118°08'3 3.0
2018-May-19 00:29N 33°42' W 118°06'7 1.0
2018-May-18 17:43N 33°36' W 118°08'3 8.3
2018-May-18 17:22N 33°38' W 118°06'4 7.0
2018-May-18 16:47N 33°42' W 118°06'2 8.9
2018-May-18 16:30N 33°44' W 118°08'713.5
2018-May-18 16:00N 33°43' W 118°16'1 1.9
2018-May-18 15:30N 33°44' W 118°16'0 0.0
2018-May-18 15:00N 33°44' W 118°16'4 8.6
2018-May-18 14:30N 33°41' W 118°13'611.8
2018-May-18 13:59N 33°36' W 118°08'714.3
2018-May-18 13:30N 33°43' W 118°07'1 1.6
2018-May-18 12:39N 33°42' W 118°06'212.4
2018-May-18 12:30N 33°43' W 118°07'0 0.3
2018-May-18 12:00N 33°43' W 118°07'0 0.0
2018-May-18 11:30N 33°43' W 118°07'0 0.0
2018-May-18 11:00N 33°43' W 118°07'0 0.0
2018-May-18 10:30N 33°43' W 118°07'0 0.0
2018-May-18 10:00N 33°43' W 118°07'0 0.0
2018-May-18 09:30N 33°43' W 118°07'0 0.0
2018-May-18 09:00N 33°43' W 118°07'0 0.0
2018-May-18 08:29N 33°43' W 118°07'0 0.0
2018-May-18 08:00N 33°43' W 118°07'0 0.0
2018-May-18 07:30N 33°43' W 118°07'0 0.0
2018-May-18 07:00N 33°43' W 118°07'0 0.0
2018-May-18 06:30N 33°43' W 118°07'0 0.0
2018-May-18 06:00N 33°43' W 118°07'0 0.0
2018-May-18 05:30N 33°43' W 118°07'0 0.0
2018-May-18 04:59N 33°43' W 118°07'0 0.0
2018-May-18 04:30N 33°43' W 118°07'0 0.0
2018-May-18 03:58N 33°43' W 118°07'0 0.0
2018-May-18 03:30N 33°43' W 118°07'0 0.0
2018-May-18 03:00N 33°43' W 118°07'0 0.0
2018-May-18 02:30N 33°43' W 118°07'6 7.6
2018-May-18 01:41N 33°37' W 118°08'315.6
2018-May-18 01:30N 33°40' W 118°07'3 6.4
2018-May-18 01:00N 33°43' W 118°06'1 1.7
2018-May-18 00:30N 33°42' W 118°06'1 2.0
2018-May-17 23:50N 33°43' W 118°07'0 0.0
2018-May-17 23:23N 33°43' W 118°07'0 0.0
2018-May-17 22:58N 33°43' W 118°07'0 0.0
2018-May-17 22:30N 33°43' W 118°07'0 0.0
2018-May-17 21:58N 33°43' W 118°07'8 8.1
2018-May-17 21:02N 33°36' W 118°09'0 0.0
2018-May-17 21:00N 33°36' W 118°09'7 2.4
2018-May-17 18:14N 33°42' W 118°05'2 8.1
2018-May-17 18:00N 33°43' W 118°07'610.9
2018-May-17 17:29N 33°43' W 118°14'2 5.0
2018-May-17 17:00N 33°44' W 118°16'0 0.0
2018-May-17 16:30N 33°44' W 118°16'1 2.3
2018-May-17 16:00N 33°43' W 118°16'713.5
2018-May-17 15:30N 33°44' W 118°08'1 1.7
2018-May-17 15:00N 33°43' W 118°07'8 8.9
2018-May-17 14:09N 33°36' W 118°09'212.7
2018-May-17 14:00N 33°38' W 118°08'6 9.1
2018-May-17 13:23N 33°43' W 118°07'4 9.8
2018-May-17 12:56N 33°40' W 118°04'511.3
2018-May-17 12:30N 33°44' W 118°07'1 1.4
2018-May-17 12:00N 33°43' W 118°07'0 0.0
2018-May-17 11:30N 33°43' W 118°07'0 0.0
2018-May-17 11:00N 33°43' W 118°07'0 0.0
2018-May-17 10:30N 33°43' W 118°07'0 0.0
2018-May-17 10:00N 33°43' W 118°07'0 0.0
2018-May-17 05:23N 33°43' W 118°07'0 0.0
2018-May-17 04:38N 33°43' W 118°07'0 0.0
2018-May-17 04:29N 33°43' W 118°07'0 0.0
2018-May-17 02:57N 33°43' W 118°07'6 5.3
2018-May-17 01:47N 33°37' W 118°08'415.0
2018-May-17 01:30N 33°41' W 118°07'2 3.6
2018-May-17 01:00N 33°42' W 118°05'1 2.3
2018-May-17 00:28N 33°43' W 118°06'1 2.5
2018-May-16 23:58N 33°44' W 118°07'1 1.0
2018-May-16 23:23N 33°43' W 118°07'6 9.2
2018-May-16 22:41N 33°37' W 118°07'5 1.2
2018-May-16 18:14N 33°42' W 118°05'210.7
2018-May-16 18:00N 33°44' W 118°06'1 1.9
2018-May-16 17:30N 33°43' W 118°07'0 0.0
2018-May-16 17:00N 33°43' W 118°07'8 3.5
2018-May-16 14:51N 33°36' W 118°09'6 9.7
2018-May-16 14:13N 33°41' W 118°05'3 6.6
2018-May-16 13:50N 33°43' W 118°07'  

Dump ship's entire track history